sensor_id;sensor_type;location;lat;lon;timestamp;temperature;humidity
69589;SHT31;56792;50.644;17.984;2023-03-18T00:01:24;6.53;40.26
69589;SHT31;56792;50.644;17.984;2023-03-18T00:03:58;6.55;40.19
69589;SHT31;56792;50.644;17.984;2023-03-18T00:06:31;6.56;40.31
69589;SHT31;56792;50.644;17.984;2023-03-18T00:09:07;6.56;40.33
69589;SHT31;56792;50.644;17.984;2023-03-18T00:11:42;6.57;40.27
69589;SHT31;56792;50.644;17.984;2023-03-18T00:14:15;6.58;40.40
69589;SHT31;56792;50.644;17.984;2023-03-18T00:16:49;6.56;40.44
69589;SHT31;56792;50.644;17.984;2023-03-18T00:19:24;6.54;40.53
69589;SHT31;56792;50.644;17.984;2023-03-18T00:21:58;6.52;40.53
69589;SHT31;56792;50.644;17.984;2023-03-18T00:24:34;6.50;40.70
69589;SHT31;56792;50.644;17.984;2023-03-18T00:27:08;6.46;40.70
69589;SHT31;56792;50.644;17.984;2023-03-18T00:29:42;6.45;40.84
69589;SHT31;56792;50.644;17.984;2023-03-18T00:32:15;6.41;40.85
69589;SHT31;56792;50.644;17.984;2023-03-18T00:34:48;6.39;40.93
69589;SHT31;56792;50.644;17.984;2023-03-18T00:37:21;6.38;40.69
69589;SHT31;56792;50.644;17.984;2023-03-18T00:39:59;6.37;40.66
69589;SHT31;56792;50.644;17.984;2023-03-18T00:42:37;6.37;40.80
69589;SHT31;56792;50.644;17.984;2023-03-18T00:45:13;6.34;40.84
69589;SHT31;56792;50.644;17.984;2023-03-18T00:47:47;6.31;40.96
69589;SHT31;56792;50.644;17.984;2023-03-18T00:50:21;6.32;40.88
69589;SHT31;56792;50.644;17.984;2023-03-18T00:52:54;6.32;40.76
69589;SHT31;56792;50.644;17.984;2023-03-18T00:55:27;6.32;40.82
69589;SHT31;56792;50.644;17.984;2023-03-18T00:57:59;6.32;40.69
69589;SHT31;56792;50.644;17.984;2023-03-18T01:00:31;6.33;40.50
69589;SHT31;56792;50.644;17.984;2023-03-18T01:03:04;6.34;40.47
69589;SHT31;56792;50.644;17.984;2023-03-18T01:05:37;6.33;40.61
69589;SHT31;56792;50.644;17.984;2023-03-18T01:08:09;6.33;40.60
69589;SHT31;56792;50.644;17.984;2023-03-18T01:10:43;6.31;40.52
69589;SHT31;56792;50.644;17.984;2023-03-18T01:13:15;6.32;40.43
69589;SHT31;56792;50.644;17.984;2023-03-18T01:15:49;6.33;40.27
69589;SHT31;56792;50.644;17.984;2023-03-18T01:18:23;6.33;40.30
69589;SHT31;56792;50.644;17.984;2023-03-18T01:20:56;6.34;40.11
69589;SHT31;56792;50.644;17.984;2023-03-18T01:23:31;6.34;40.31
69589;SHT31;56792;50.644;17.984;2023-03-18T01:26:04;6.34;40.38
69589;SHT31;56792;50.644;17.984;2023-03-18T01:28:38;6.33;40.41
69589;SHT31;56792;50.644;17.984;2023-03-18T01:31:10;6.31;40.49
69589;SHT31;56792;50.644;17.984;2023-03-18T01:33:44;6.30;40.49
69589;SHT31;56792;50.644;17.984;2023-03-18T01:36:17;6.28;40.52
69589;SHT31;56792;50.644;17.984;2023-03-18T01:38:59;6.26;40.71
69589;SHT31;56792;50.644;17.984;2023-03-18T01:41:32;6.21;40.89
69589;SHT31;56792;50.644;17.984;2023-03-18T01:44:09;6.18;40.80
69589;SHT31;56792;50.644;17.984;2023-03-18T01:46:46;6.17;40.87
69589;SHT31;56792;50.644;17.984;2023-03-18T01:49:21;6.13;40.96
69589;SHT31;56792;50.644;17.984;2023-03-18T01:52:00;6.11;41.17
69589;SHT31;56792;50.644;17.984;2023-03-18T01:54:39;6.09;41.23
69589;SHT31;56792;50.644;17.984;2023-03-18T01:57:16;6.06;41.22
69589;SHT31;56792;50.644;17.984;2023-03-18T01:59:51;6.05;41.21
69589;SHT31;56792;50.644;17.984;2023-03-18T02:02:25;6.04;41.27
69589;SHT31;56792;50.644;17.984;2023-03-18T02:05:00;6.02;41.31
69589;SHT31;56792;50.644;17.984;2023-03-18T02:07:39;6.00;41.34
69589;SHT31;56792;50.644;17.984;2023-03-18T02:10:15;5.98;41.34
69589;SHT31;56792;50.644;17.984;2023-03-18T02:12:52;5.96;41.38
69589;SHT31;56792;50.644;17.984;2023-03-18T02:15:32;5.93;41.54
69589;SHT31;56792;50.644;17.984;2023-03-18T02:18:13;5.91;41.68
69589;SHT31;56792;50.644;17.984;2023-03-18T02:20:54;5.89;41.75
69589;SHT31;56792;50.644;17.984;2023-03-18T02:23:45;5.87;41.80
69589;SHT31;56792;50.644;17.984;2023-03-18T02:26:32;5.83;41.93
69589;SHT31;56792;50.644;17.984;2023-03-18T02:29:22;5.82;41.85
69589;SHT31;56792;50.644;17.984;2023-03-18T02:32:02;5.82;41.78
69589;SHT31;56792;50.644;17.984;2023-03-18T02:34:36;5.81;41.91
69589;SHT31;56792;50.644;17.984;2023-03-18T02:37:11;5.80;41.92
69589;SHT31;56792;50.644;17.984;2023-03-18T02:39:44;5.77;42.11
69589;SHT31;56792;50.644;17.984;2023-03-18T02:42:26;5.75;42.12
69589;SHT31;56792;50.644;17.984;2023-03-18T02:45:00;5.74;42.14
69589;SHT31;56792;50.644;17.984;2023-03-18T02:47:55;5.69;42.26
69589;SHT31;56792;50.644;17.984;2023-03-18T02:50:32;5.66;42.31
69589;SHT31;56792;50.644;17.984;2023-03-18T02:53:05;5.63;42.34
69589;SHT31;56792;50.644;17.984;2023-03-18T02:55:41;5.59;42.52
69589;SHT31;56792;50.644;17.984;2023-03-18T02:58:13;5.55;42.66
69589;SHT31;56792;50.644;17.984;2023-03-18T03:00:46;5.50;42.81
69589;SHT31;56792;50.644;17.984;2023-03-18T03:03:19;5.46;43.02
69589;SHT31;56792;50.644;17.984;2023-03-18T03:05:51;5.42;43.21
69589;SHT31;56792;50.644;17.984;2023-03-18T03:08:24;5.39;43.22
69589;SHT31;56792;50.644;17.984;2023-03-18T03:10:56;5.35;43.49
69589;SHT31;56792;50.644;17.984;2023-03-18T03:13:31;5.32;43.49
69589;SHT31;56792;50.644;17.984;2023-03-18T03:16:04;5.30;43.60
69589;SHT31;56792;50.644;17.984;2023-03-18T03:18:37;5.28;43.70
69589;SHT31;56792;50.644;17.984;2023-03-18T03:21:10;5.28;43.74
69589;SHT31;56792;50.644;17.984;2023-03-18T03:23:44;5.28;43.76
69589;SHT31;56792;50.644;17.984;2023-03-18T03:26:17;5.29;43.64
69589;SHT31;56792;50.644;17.984;2023-03-18T03:28:50;5.28;43.69
69589;SHT31;56792;50.644;17.984;2023-03-18T03:31:23;5.28;43.62
69589;SHT31;56792;50.644;17.984;2023-03-18T03:33:55;5.28;43.74
69589;SHT31;56792;50.644;17.984;2023-03-18T03:36:27;5.28;43.67
69589;SHT31;56792;50.644;17.984;2023-03-18T03:39:00;5.29;43.73
69589;SHT31;56792;50.644;17.984;2023-03-18T03:41:35;5.30;43.72
69589;SHT31;56792;50.644;17.984;2023-03-18T03:44:07;5.31;43.68
69589;SHT31;56792;50.644;17.984;2023-03-18T03:46:39;5.33;43.62
69589;SHT31;56792;50.644;17.984;2023-03-18T03:49:12;5.33;43.65
69589;SHT31;56792;50.644;17.984;2023-03-18T03:51:44;5.35;43.61
69589;SHT31;56792;50.644;17.984;2023-03-18T03:54:17;5.38;43.49
69589;SHT31;56792;50.644;17.984;2023-03-18T03:56:49;5.39;43.48
69589;SHT31;56792;50.644;17.984;2023-03-18T03:59:22;5.42;43.35
69589;SHT31;56792;50.644;17.984;2023-03-18T04:02:09;5.42;43.44
69589;SHT31;56792;50.644;17.984;2023-03-18T04:04:41;5.43;43.45
69589;SHT31;56792;50.644;17.984;2023-03-18T04:07:22;5.42;43.53
69589;SHT31;56792;50.644;17.984;2023-03-18T04:09:55;5.42;43.53
69589;SHT31;56792;50.644;17.984;2023-03-18T04:12:27;5.42;43.48
69589;SHT31;56792;50.644;17.984;2023-03-18T04:15:01;5.42;43.54
69589;SHT31;56792;50.644;17.984;2023-03-18T04:17:36;5.41;43.71
69589;SHT31;56792;50.644;17.984;2023-03-18T04:20:10;5.42;43.73
69589;SHT31;56792;50.644;17.984;2023-03-18T04:22:44;5.41;43.67
69589;SHT31;56792;50.644;17.984;2023-03-18T04:25:19;5.40;43.80
69589;SHT31;56792;50.644;17.984;2023-03-18T04:27:52;5.39;43.86
69589;SHT31;56792;50.644;17.984;2023-03-18T04:30:25;5.39;43.86
69589;SHT31;56792;50.644;17.984;2023-03-18T04:33:04;5.40;43.87
69589;SHT31;56792;50.644;17.984;2023-03-18T04:35:40;5.41;43.85
69589;SHT31;56792;50.644;17.984;2023-03-18T04:38:14;5.42;43.85
69589;SHT31;56792;50.644;17.984;2023-03-18T04:40:48;5.43;43.76
69589;SHT31;56792;50.644;17.984;2023-03-18T04:43:20;5.45;43.85
69589;SHT31;56792;50.644;17.984;2023-03-18T04:45:53;5.46;43.80
69589;SHT31;56792;50.644;17.984;2023-03-18T04:48:25;5.48;43.82
69589;SHT31;56792;50.644;17.984;2023-03-18T04:50:57;5.46;43.95
69589;SHT31;56792;50.644;17.984;2023-03-18T04:53:30;5.47;43.88
69589;SHT31;56792;50.644;17.984;2023-03-18T04:56:03;5.50;43.75
69589;SHT31;56792;50.644;17.984;2023-03-18T04:58:43;5.52;43.64
69589;SHT31;56792;50.644;17.984;2023-03-18T05:01:18;5.54;43.61
69589;SHT31;56792;50.644;17.984;2023-03-18T05:03:51;5.57;43.53
69589;SHT31;56792;50.644;17.984;2023-03-18T05:06:25;5.58;43.60
69589;SHT31;56792;50.644;17.984;2023-03-18T05:09:04;5.61;43.65
69589;SHT31;56792;50.644;17.984;2023-03-18T05:11:38;5.63;43.64
69589;SHT31;56792;50.644;17.984;2023-03-18T05:14:24;5.66;43.64
69589;SHT31;56792;50.644;17.984;2023-03-18T05:16:57;5.71;43.59
69589;SHT31;56792;50.644;17.984;2023-03-18T05:19:30;5.73;43.53
69589;SHT31;56792;50.644;17.984;2023-03-18T05:22:10;5.76;43.51
69589;SHT31;56792;50.644;17.984;2023-03-18T05:24:44;5.80;43.34
69589;SHT31;56792;50.644;17.984;2023-03-18T05:27:17;5.83;43.35
69589;SHT31;56792;50.644;17.984;2023-03-18T05:30:02;5.88;43.46
69589;SHT31;56792;50.644;17.984;2023-03-18T05:32:39;5.91;43.49
69589;SHT31;56792;50.644;17.984;2023-03-18T05:35:12;5.93;43.40
69589;SHT31;56792;50.644;17.984;2023-03-18T05:37:52;5.95;43.40
69589;SHT31;56792;50.644;17.984;2023-03-18T05:40:25;5.99;43.34
69589;SHT31;56792;50.644;17.984;2023-03-18T05:43:05;6.03;43.30
69589;SHT31;56792;50.644;17.984;2023-03-18T05:45:43;6.07;43.24
69589;SHT31;56792;50.644;17.984;2023-03-18T05:48:17;6.12;43.28
69589;SHT31;56792;50.644;17.984;2023-03-18T05:50:52;6.17;43.13
69589;SHT31;56792;50.644;17.984;2023-03-18T05:53:26;6.23;43.08
69589;SHT31;56792;50.644;17.984;2023-03-18T05:56:08;6.31;42.95
69589;SHT31;56792;50.644;17.984;2023-03-18T05:58:41;6.37;42.77
69589;SHT31;56792;50.644;17.984;2023-03-18T06:01:25;6.44;42.76
69589;SHT31;56792;50.644;17.984;2023-03-18T06:03:59;6.51;42.70
69589;SHT31;56792;50.644;17.984;2023-03-18T06:06:32;6.59;42.61
69589;SHT31;56792;50.644;17.984;2023-03-18T06:09:07;6.68;42.67
69589;SHT31;56792;50.644;17.984;2023-03-18T06:11:42;6.77;42.38
69589;SHT31;56792;50.644;17.984;2023-03-18T06:14:15;6.82;42.06
69589;SHT31;56792;50.644;17.984;2023-03-18T06:16:47;6.89;42.08
69589;SHT31;56792;50.644;17.984;2023-03-18T06:19:21;6.95;41.83
69589;SHT31;56792;50.644;17.984;2023-03-18T06:21:54;7.03;41.69
69589;SHT31;56792;50.644;17.984;2023-03-18T06:24:26;7.13;41.90
69589;SHT31;56792;50.644;17.984;2023-03-18T06:26:59;7.22;41.80
69589;SHT31;56792;50.644;17.984;2023-03-18T06:29:31;7.31;41.67
69589;SHT31;56792;50.644;17.984;2023-03-18T06:32:10;7.41;41.49
69589;SHT31;56792;50.644;17.984;2023-03-18T06:34:42;7.54;41.43
69589;SHT31;56792;50.644;17.984;2023-03-18T06:37:15;7.64;41.08
69589;SHT31;56792;50.644;17.984;2023-03-18T06:39:49;7.70;40.85
69589;SHT31;56792;50.644;17.984;2023-03-18T06:42:22;7.74;40.84
69589;SHT31;56792;50.644;17.984;2023-03-18T06:45:08;7.81;40.53
69589;SHT31;56792;50.644;17.984;2023-03-18T06:47:55;7.87;40.49
69589;SHT31;56792;50.644;17.984;2023-03-18T06:50:28;7.91;40.36
69589;SHT31;56792;50.644;17.984;2023-03-18T06:53:00;7.97;40.41
69589;SHT31;56792;50.644;17.984;2023-03-18T06:55:33;8.02;40.15
69589;SHT31;56792;50.644;17.984;2023-03-18T06:58:06;8.04;40.23
69589;SHT31;56792;50.644;17.984;2023-03-18T07:00:45;8.12;40.22
69589;SHT31;56792;50.644;17.984;2023-03-18T07:03:22;8.16;39.66
69589;SHT31;56792;50.644;17.984;2023-03-18T07:05:54;8.20;40.02
69589;SHT31;56792;50.644;17.984;2023-03-18T07:08:27;8.32;39.54
69589;SHT31;56792;50.644;17.984;2023-03-18T07:11:00;8.43;39.52
69589;SHT31;56792;50.644;17.984;2023-03-18T07:13:36;8.58;39.11
69589;SHT31;56792;50.644;17.984;2023-03-18T07:16:16;8.70;38.60
69589;SHT31;56792;50.644;17.984;2023-03-18T07:18:50;8.86;38.78
69589;SHT31;56792;50.644;17.984;2023-03-18T07:21:24;9.07;38.59
69589;SHT31;56792;50.644;17.984;2023-03-18T07:24:02;9.20;37.66
69589;SHT31;56792;50.644;17.984;2023-03-18T07:26:43;9.37;37.76
69589;SHT31;56792;50.644;17.984;2023-03-18T07:29:21;9.57;37.22
69589;SHT31;56792;50.644;17.984;2023-03-18T07:31:59;9.81;36.70
69589;SHT31;56792;50.644;17.984;2023-03-18T07:34:32;9.98;36.21
69589;SHT31;56792;50.644;17.984;2023-03-18T07:37:05;10.12;36.09
69589;SHT31;56792;50.644;17.984;2023-03-18T07:39:38;10.30;35.98
69589;SHT31;56792;50.644;17.984;2023-03-18T07:42:11;10.50;35.88
69589;SHT31;56792;50.644;17.984;2023-03-18T07:44:46;10.73;35.53
69589;SHT31;56792;50.644;17.984;2023-03-18T07:47:19;10.86;35.17
69589;SHT31;56792;50.644;17.984;2023-03-18T07:49:52;10.94;34.79
69589;SHT31;56792;50.644;17.984;2023-03-18T07:52:25;11.04;34.12
69589;SHT31;56792;50.644;17.984;2023-03-18T07:54:57;11.01;34.39
69589;SHT31;56792;50.644;17.984;2023-03-18T07:57:30;11.05;34.14
69589;SHT31;56792;50.644;17.984;2023-03-18T08:00:03;11.10;34.52
69589;SHT31;56792;50.644;17.984;2023-03-18T08:02:41;11.08;34.45
69589;SHT31;56792;50.644;17.984;2023-03-18T08:05:15;11.00;34.48
69589;SHT31;56792;50.644;17.984;2023-03-18T08:07:48;11.06;34.94
69589;SHT31;56792;50.644;17.984;2023-03-18T08:10:21;11.12;34.53
69589;SHT31;56792;50.644;17.984;2023-03-18T08:12:53;11.15;34.93
69589;SHT31;56792;50.644;17.984;2023-03-18T08:15:25;11.21;34.19
69589;SHT31;56792;50.644;17.984;2023-03-18T08:17:59;11.21;34.45
69589;SHT31;56792;50.644;17.984;2023-03-18T08:20:32;11.24;34.53
69589;SHT31;56792;50.644;17.984;2023-03-18T08:23:05;11.30;35.21
69589;SHT31;56792;50.644;17.984;2023-03-18T08:25:39;11.38;34.85
69589;SHT31;56792;50.644;17.984;2023-03-18T08:28:14;11.48;34.03
69589;SHT31;56792;50.644;17.984;2023-03-18T08:30:47;11.53;34.11
69589;SHT31;56792;50.644;17.984;2023-03-18T08:33:23;11.73;34.12
69589;SHT31;56792;50.644;17.984;2023-03-18T08:35:56;11.95;33.97
69589;SHT31;56792;50.644;17.984;2023-03-18T08:38:29;12.06;33.37
69589;SHT31;56792;50.644;17.984;2023-03-18T08:41:03;12.16;33.71
69589;SHT31;56792;50.644;17.984;2023-03-18T08:43:36;12.33;33.53
69589;SHT31;56792;50.644;17.984;2023-03-18T08:46:10;12.54;33.16
69589;SHT31;56792;50.644;17.984;2023-03-18T08:48:43;12.68;32.97
69589;SHT31;56792;50.644;17.984;2023-03-18T08:51:16;12.86;32.52
69589;SHT31;56792;50.644;17.984;2023-03-18T08:53:49;13.02;32.60
69589;SHT31;56792;50.644;17.984;2023-03-18T08:56:21;13.20;32.24
69589;SHT31;56792;50.644;17.984;2023-03-18T08:58:54;13.41;31.90
69589;SHT31;56792;50.644;17.984;2023-03-18T09:01:26;13.64;32.15
69589;SHT31;56792;50.644;17.984;2023-03-18T09:04:00;13.96;31.44
69589;SHT31;56792;50.644;17.984;2023-03-18T09:06:33;14.12;30.86
69589;SHT31;56792;50.644;17.984;2023-03-18T09:09:05;14.46;30.38
69589;SHT31;56792;50.644;17.984;2023-03-18T09:11:38;15.13;29.91
69589;SHT31;56792;50.644;17.984;2023-03-18T09:14:12;15.72;28.50
69589;SHT31;56792;50.644;17.984;2023-03-18T09:16:47;16.05;27.90
69589;SHT31;56792;50.644;17.984;2023-03-18T09:19:19;16.74;27.26
69589;SHT31;56792;50.644;17.984;2023-03-18T09:21:54;17.41;26.27
69589;SHT31;56792;50.644;17.984;2023-03-18T09:24:26;17.88;25.79
69589;SHT31;56792;50.644;17.984;2023-03-18T09:26:59;18.17;25.45
69589;SHT31;56792;50.644;17.984;2023-03-18T09:29:32;18.90;25.66
69589;SHT31;56792;50.644;17.984;2023-03-18T09:32:05;19.41;23.44
69589;SHT31;56792;50.644;17.984;2023-03-18T09:34:39;19.69;23.01
69589;SHT31;56792;50.644;17.984;2023-03-18T09:37:12;20.07;22.58
69589;SHT31;56792;50.644;17.984;2023-03-18T09:39:45;20.67;22.39
69589;SHT31;56792;50.644;17.984;2023-03-18T09:42:27;21.15;21.67
69589;SHT31;56792;50.644;17.984;2023-03-18T09:45:22;21.97;20.65
69589;SHT31;56792;50.644;17.984;2023-03-18T09:48:09;22.53;20.56
69589;SHT31;56792;50.644;17.984;2023-03-18T09:51:18;22.86;18.38
69589;SHT31;56792;50.644;17.984;2023-03-18T09:54:14;23.06;17.60
69589;SHT31;56792;50.644;17.984;2023-03-18T09:56:57;23.26;17.49
69589;SHT31;56792;50.644;17.984;2023-03-18T09:59:33;23.62;17.03
69589;SHT31;56792;50.644;17.984;2023-03-18T10:02:16;23.83;16.24
69589;SHT31;56792;50.644;17.984;2023-03-18T10:04:55;23.85;16.31
69589;SHT31;56792;50.644;17.984;2023-03-18T10:07:34;24.41;16.42
69589;SHT31;56792;50.644;17.984;2023-03-18T10:10:14;25.16;15.99
69589;SHT31;56792;50.644;17.984;2023-03-18T10:12:56;25.72;15.17
69589;SHT31;56792;50.644;17.984;2023-03-18T10:15:41;26.08;15.40
69589;SHT31;56792;50.644;17.984;2023-03-18T10:18:22;26.61;14.82
69589;SHT31;56792;50.644;17.984;2023-03-18T10:21:02;27.09;15.36
69589;SHT31;56792;50.644;17.984;2023-03-18T10:23:56;26.55;15.22
69589;SHT31;56792;50.644;17.984;2023-03-18T10:26:46;26.87;15.43
69589;SHT31;56792;50.644;17.984;2023-03-18T10:29:29;27.94;14.76
69589;SHT31;56792;50.644;17.984;2023-03-18T10:32:20;28.57;14.44
69589;SHT31;56792;50.644;17.984;2023-03-18T10:35:04;28.87;14.01
69589;SHT31;56792;50.644;17.984;2023-03-18T10:37:54;29.27;13.40
69589;SHT31;56792;50.644;17.984;2023-03-18T10:40:33;29.08;13.27
69589;SHT31;56792;50.644;17.984;2023-03-18T10:43:11;28.81;13.59
69589;SHT31;56792;50.644;17.984;2023-03-18T10:45:48;28.89;13.69
69589;SHT31;56792;50.644;17.984;2023-03-18T10:48:31;28.06;13.31
69589;SHT31;56792;50.644;17.984;2023-03-18T10:51:11;27.65;13.58
69589;SHT31;56792;50.644;17.984;2023-03-18T10:53:55;28.28;13.32
69589;SHT31;56792;50.644;17.984;2023-03-18T10:56:36;28.20;13.22
69589;SHT31;56792;50.644;17.984;2023-03-18T10:59:14;28.20;12.96
69589;SHT31;56792;50.644;17.984;2023-03-18T11:01:51;28.66;12.82
69589;SHT31;56792;50.644;17.984;2023-03-18T11:04:30;29.22;13.01
69589;SHT31;56792;50.644;17.984;2023-03-18T11:07:13;29.85;12.96
69589;SHT31;56792;50.644;17.984;2023-03-18T11:09:52;30.21;12.51
69589;SHT31;56792;50.644;17.984;2023-03-18T11:12:41;30.17;12.38
69589;SHT31;56792;50.644;17.984;2023-03-18T11:15:18;29.45;12.50
69589;SHT31;56792;50.644;17.984;2023-03-18T11:17:52;29.75;12.75
69589;SHT31;56792;50.644;17.984;2023-03-18T11:20:33;30.26;12.55
69589;SHT31;56792;50.644;17.984;2023-03-18T11:23:15;30.50;12.45
69589;SHT31;56792;50.644;17.984;2023-03-18T11:26:18;30.79;12.27
69589;SHT31;56792;50.644;17.984;2023-03-18T11:28:54;30.55;12.38
69589;SHT31;56792;50.644;17.984;2023-03-18T11:31:35;30.86;12.11
69589;SHT31;56792;50.644;17.984;2023-03-18T11:34:24;30.61;12.03
69589;SHT31;56792;50.644;17.984;2023-03-18T11:37:01;30.91;12.26
69589;SHT31;56792;50.644;17.984;2023-03-18T11:39:39;30.82;12.18
69589;SHT31;56792;50.644;17.984;2023-03-18T11:42:17;30.36;12.34
69589;SHT31;56792;50.644;17.984;2023-03-18T11:44:53;29.83;12.66
69589;SHT31;56792;50.644;17.984;2023-03-18T11:47:36;28.74;13.01
69589;SHT31;56792;50.644;17.984;2023-03-18T11:50:13;27.57;13.87
69589;SHT31;56792;50.644;17.984;2023-03-18T11:52:53;26.45;14.40
69589;SHT31;56792;50.644;17.984;2023-03-18T11:55:34;25.05;15.43
69589;SHT31;56792;50.644;17.984;2023-03-18T11:58:24;24.66;15.69
69589;SHT31;56792;50.644;17.984;2023-03-18T12:01:17;24.41;16.26
69589;SHT31;56792;50.644;17.984;2023-03-18T12:07:07;24.49;16.48
69589;SHT31;56792;50.644;17.984;2023-03-18T12:09:55;24.99;15.82
69589;SHT31;56792;50.644;17.984;2023-03-18T12:12:44;26.08;15.36
69589;SHT31;56792;50.644;17.984;2023-03-18T12:15:33;26.27;15.18
69589;SHT31;56792;50.644;17.984;2023-03-18T12:18:20;25.74;15.07
69589;SHT31;56792;50.644;17.984;2023-03-18T12:21:23;25.13;15.99
69589;SHT31;56792;50.644;17.984;2023-03-18T12:24:21;24.62;16.27
69589;SHT31;56792;50.644;17.984;2023-03-18T12:27:14;23.93;16.45
69589;SHT31;56792;50.644;17.984;2023-03-18T12:33:26;25.77;16.03
69589;SHT31;56792;50.644;17.984;2023-03-18T12:36:14;27.19;15.25
69589;SHT31;56792;50.644;17.984;2023-03-18T12:42:19;28.94;14.20
69589;SHT31;56792;50.644;17.984;2023-03-18T12:45:09;28.94;14.22
69589;SHT31;56792;50.644;17.984;2023-03-18T12:47:46;29.07;13.91
69589;SHT31;56792;50.644;17.984;2023-03-18T12:50:26;28.92;13.70
69589;SHT31;56792;50.644;17.984;2023-03-18T12:53:08;28.82;13.58
69589;SHT31;56792;50.644;17.984;2023-03-18T12:55:46;28.84;13.83
69589;SHT31;56792;50.644;17.984;2023-03-18T12:58:29;28.87;13.37
69589;SHT31;56792;50.644;17.984;2023-03-18T13:01:10;28.12;13.40
69589;SHT31;56792;50.644;17.984;2023-03-18T13:03:51;28.18;13.72
69589;SHT31;56792;50.644;17.984;2023-03-18T13:06:30;28.25;13.52
69589;SHT31;56792;50.644;17.984;2023-03-18T13:09:13;28.16;13.93
69589;SHT31;56792;50.644;17.984;2023-03-18T13:11:57;28.61;14.03
69589;SHT31;56792;50.644;17.984;2023-03-18T13:14:43;28.08;13.26
69589;SHT31;56792;50.644;17.984;2023-03-18T13:17:27;27.57;13.79
69589;SHT31;56792;50.644;17.984;2023-03-18T13:20:09;27.01;13.92
69589;SHT31;56792;50.644;17.984;2023-03-18T13:26:01;26.67;14.39
69589;SHT31;56792;50.644;17.984;2023-03-18T13:28:46;26.51;14.42
69589;SHT31;56792;50.644;17.984;2023-03-18T13:31:35;26.32;14.35
69589;SHT31;56792;50.644;17.984;2023-03-18T13:37:26;26.05;14.85
69589;SHT31;56792;50.644;17.984;2023-03-18T13:40:30;26.15;14.78
69589;SHT31;56792;50.644;17.984;2023-03-18T13:43:16;26.27;15.02
69589;SHT31;56792;50.644;17.984;2023-03-18T13:45:53;26.44;14.81
69589;SHT31;56792;50.644;17.984;2023-03-18T13:48:29;26.20;14.64
69589;SHT31;56792;50.644;17.984;2023-03-18T13:51:16;25.72;15.03
69589;SHT31;56792;50.644;17.984;2023-03-18T13:54:13;25.69;15.22
69589;SHT31;56792;50.644;17.984;2023-03-18T13:56:50;25.24;15.32
69589;SHT31;56792;50.644;17.984;2023-03-18T13:59:46;25.69;15.72
69589;SHT31;56792;50.644;17.984;2023-03-18T14:02:42;25.83;15.27
69589;SHT31;56792;50.644;17.984;2023-03-18T14:05:35;25.76;15.16
69589;SHT31;56792;50.644;17.984;2023-03-18T14:11:40;24.43;16.25
69589;SHT31;56792;50.644;17.984;2023-03-18T14:17:57;21.89;18.09
69589;SHT31;56792;50.644;17.984;2023-03-18T14:20:38;21.41;18.81
69589;SHT31;56792;50.644;17.984;2023-03-18T14:23:32;20.93;19.05
69589;SHT31;56792;50.644;17.984;2023-03-18T14:26:17;20.44;19.85
69589;SHT31;56792;50.644;17.984;2023-03-18T14:28:56;20.12;20.53
69589;SHT31;56792;50.644;17.984;2023-03-18T14:31:54;19.90;20.71
69589;SHT31;56792;50.644;17.984;2023-03-18T14:34:34;19.80;21.04
69589;SHT31;56792;50.644;17.984;2023-03-18T14:37:26;19.51;21.18
69589;SHT31;56792;50.644;17.984;2023-03-18T14:40:02;19.30;21.44
69589;SHT31;56792;50.644;17.984;2023-03-18T14:42:47;19.08;21.82
69589;SHT31;56792;50.644;17.984;2023-03-18T14:45:27;18.82;21.95
69589;SHT31;56792;50.644;17.984;2023-03-18T14:48:08;18.52;22.35
69589;SHT31;56792;50.644;17.984;2023-03-18T14:50:48;18.30;22.88
69589;SHT31;56792;50.644;17.984;2023-03-18T14:53:26;18.15;23.00
69589;SHT31;56792;50.644;17.984;2023-03-18T14:56:04;17.91;23.05
69589;SHT31;56792;50.644;17.984;2023-03-18T14:58:47;17.74;23.34
69589;SHT31;56792;50.644;17.984;2023-03-18T15:01:23;17.67;23.51
69589;SHT31;56792;50.644;17.984;2023-03-18T15:04:03;17.54;23.50
69589;SHT31;56792;50.644;17.984;2023-03-18T15:06:44;17.34;23.75
69589;SHT31;56792;50.644;17.984;2023-03-18T15:09:18;17.30;23.95
69589;SHT31;56792;50.644;17.984;2023-03-18T15:11:56;17.28;24.38
69589;SHT31;56792;50.644;17.984;2023-03-18T15:14:42;17.20;24.35
69589;SHT31;56792;50.644;17.984;2023-03-18T15:17:17;17.08;24.70
69589;SHT31;56792;50.644;17.984;2023-03-18T15:19:52;17.00;25.04
69589;SHT31;56792;50.644;17.984;2023-03-18T15:22:28;16.95;24.98
69589;SHT31;56792;50.644;17.984;2023-03-18T15:25:03;16.72;24.54
69589;SHT31;56792;50.644;17.984;2023-03-18T15:27:44;16.44;24.66
69589;SHT31;56792;50.644;17.984;2023-03-18T15:30:23;16.20;24.98
69589;SHT31;56792;50.644;17.984;2023-03-18T15:33:03;15.96;25.33
69589;SHT31;56792;50.644;17.984;2023-03-18T15:35:44;15.71;25.69
69589;SHT31;56792;50.644;17.984;2023-03-18T15:38:27;15.55;26.05
69589;SHT31;56792;50.644;17.984;2023-03-18T15:41:02;15.37;26.20
69589;SHT31;56792;50.644;17.984;2023-03-18T15:43:41;15.26;26.33
69589;SHT31;56792;50.644;17.984;2023-03-18T15:46:18;15.18;26.62
69589;SHT31;56792;50.644;17.984;2023-03-18T15:48:57;15.13;27.01
69589;SHT31;56792;50.644;17.984;2023-03-18T15:51:32;15.01;26.84
69589;SHT31;56792;50.644;17.984;2023-03-18T15:54:15;14.90;27.24
69589;SHT31;56792;50.644;17.984;2023-03-18T15:56:54;14.78;27.21
69589;SHT31;56792;50.644;17.984;2023-03-18T15:59:37;14.69;27.19
69589;SHT31;56792;50.644;17.984;2023-03-18T16:02:13;14.59;27.31
69589;SHT31;56792;50.644;17.984;2023-03-18T16:04:45;14.42;27.58
69589;SHT31;56792;50.644;17.984;2023-03-18T16:07:19;14.32;27.73
69589;SHT31;56792;50.644;17.984;2023-03-18T16:09:54;14.21;28.28
69589;SHT31;56792;50.644;17.984;2023-03-18T16:12:27;14.11;28.64
69589;SHT31;56792;50.644;17.984;2023-03-18T16:15:02;14.04;28.80
69589;SHT31;56792;50.644;17.984;2023-03-18T16:17:41;13.97;28.88
69589;SHT31;56792;50.644;17.984;2023-03-18T16:24:15;13.73;29.44
69589;SHT31;56792;50.644;17.984;2023-03-18T16:26:49;13.65;29.68
69589;SHT31;56792;50.644;17.984;2023-03-18T16:29:25;13.54;29.53
69589;SHT31;56792;50.644;17.984;2023-03-18T16:32:02;13.44;29.57
69589;SHT31;56792;50.644;17.984;2023-03-18T16:34:38;13.36;29.73
69589;SHT31;56792;50.644;17.984;2023-03-18T16:37:14;13.28;29.81
69589;SHT31;56792;50.644;17.984;2023-03-18T16:39:52;13.20;30.01
69589;SHT31;56792;50.644;17.984;2023-03-18T16:42:24;13.09;30.23
69589;SHT31;56792;50.644;17.984;2023-03-18T16:44:57;13.00;30.56
69589;SHT31;56792;50.644;17.984;2023-03-18T16:47:31;12.91;30.75
69589;SHT31;56792;50.644;17.984;2023-03-18T16:50:08;12.83;31.06
69589;SHT31;56792;50.644;17.984;2023-03-18T16:52:48;12.79;31.49
69589;SHT31;56792;50.644;17.984;2023-03-18T16:55:22;12.72;31.59